Galway, Ireland

11:56 AM IST on September 22, 2014 (GMT +0100)
ICOGALWA4 | Change Station
CLOSE
Current Station
Personal Weather Station
Location: Galway City, Co. Galway
Elevation: 75 ft
Nearby Weather Stations

Elev 75 ft 53.29 °N, 9.07 °W | Updated 11 seconds ago

Mostly Cloudy
Mostly Cloudy
59.4 °F
Feels Like 59.4 °F
N
2.0
Wind Variable Wind from SSW
Gusts 8.0 mph

Today
High -- | Low -- °F
--% Chance of Precip.
Yesterday
High -- | Low -- °F
Precip. -- in
7:21 AM 7:35 PM
Waning Crescent, 3% visible
Pressure 30.30 in
Visibility 5.0 miles
Clouds Few 800 ft
Mostly Cloudy 3000 ft
Dew Point 53 °F
Humidity 81%
Rainfall 0.00 in
Snow Depth Not available.
UV 0.0 out of 12
Pollen Not available.
Air Quality Not available.
Flu Activity Not available.
METAR EINN 221030Z 10005KT 8000 FEW008 BKN030 13/11 Q1026 BECMG 9999

More Conditions Fewer Conditions

Pressure 30.30 in
Visibility 5.0 miles
Clouds Few 800 ft
Mostly Cloudy 3000 ft
Dew Point 53 °F
Humidity 81%
Rainfall 0.00 in
Snow Depth Not available.
UV 0.0 out of 12
Pollen Not available.
Air Quality Not available.
Flu Activity Not available.
METAR EINN 221030Z 10005KT 8000 FEW008 BKN030 13/11 Q1026 BECMG 9999

More Conditions Fewer Conditions

10-Day Weather Forecast

Almanac

Astronomy

Sep. 22, 2014 Rise Set
Actual Time 7:21 AM IST 7:35 PM IST
Civil Twilight 6:46 AM IST 8:09 PM IST
Nautical Twilight 6:05 AM IST 8:50 PM IST
Astronomical Twilight 5:22 AM IST 9:33 PM IST
Moon 5:27 AM IST 6:42 PM IST
Length of Visible Light 13h 22m
Length of Day
12h 13m
Tomorrow will be 4m 10s shorter.
Waning Crescent, 3% of the Moon is Illuminated
Today
Waning Crescent
Sep 24
New
Oct 1
First Quarter
Oct 8
Full
Oct 15
Last Quarter

Yesterday's Extremes

Country Highs Country Lows

Community

WunderPhotos

Upload Photos

1,755,408 photos uploaded!

Nearby

Snow Depth

Not available.

Earthquake Activity

City Distance Mag. Time & Date
No recent earthquake activity has been reported nearby.
Minimum magnitude displayed is 2.5.

Coastal Water Temperatures

Place Temperature
No Stations Reporting

Nearby Weather Stations